createdAt,value
2022-08-05T00:00:33.467Z,17.71
2022-08-05T00:01:36.534Z,17.67
2022-08-05T00:02:33.412Z,17.67
2022-08-05T00:03:32.302Z,17.65
2022-08-05T00:04:32.290Z,17.65
2022-08-05T00:06:04.637Z,17.65
2022-08-05T00:06:35.981Z,17.65
2022-08-05T00:08:00.169Z,17.68
2022-08-05T00:08:35.113Z,17.68
2022-08-05T00:09:32.225Z,17.71
2022-08-05T00:10:32.204Z,17.72
2022-08-05T00:11:49.423Z,17.76
2022-08-05T00:12:56.453Z,17.80
2022-08-05T00:13:39.389Z,17.80
2022-08-05T00:14:33.147Z,17.80
2022-08-05T00:15:55.410Z,17.80
2022-08-05T00:16:35.376Z,17.82
2022-08-05T00:17:32.453Z,17.82
2022-08-05T00:18:32.098Z,17.82
2022-08-05T00:19:33.106Z,17.79
2022-08-05T00:20:33.069Z,17.79
2022-08-05T00:21:35.644Z,17.80
2022-08-05T00:22:32.041Z,17.83
2022-08-05T00:23:46.643Z,17.83
2022-08-05T00:24:33.040Z,17.85
2022-08-05T00:25:45.397Z,17.87
2022-08-05T00:26:33.021Z,17.87
2022-08-05T00:27:35.758Z,17.87
2022-08-05T00:28:31.962Z,17.85
2022-08-05T00:29:37.618Z,17.83
2022-08-05T00:30:32.934Z,17.85
2022-08-05T00:31:54.332Z,17.79
2022-08-05T00:32:36.035Z,17.79
2022-08-05T00:34:55.464Z,17.78
2022-08-05T00:34:55.858Z,17.71
2022-08-05T00:35:33.347Z,17.72
2022-08-05T00:37:10.308Z,17.78
2022-08-05T00:37:51.375Z,17.85
2022-08-05T00:38:33.931Z,17.86
2022-08-05T00:39:37.066Z,17.86
2022-08-05T00:40:32.806Z,17.82
2022-08-05T00:41:51.675Z,17.82
2022-08-05T00:42:32.878Z,17.79
2022-08-05T00:43:46.670Z,17.79
2022-08-05T00:44:32.813Z,17.79
2022-08-05T00:45:38.325Z,17.79
2022-08-05T00:46:36.969Z,17.79
2022-08-05T00:47:56.367Z,17.79
2022-08-05T00:48:32.679Z,17.79
2022-08-05T00:49:32.659Z,17.82
2022-08-05T00:50:31.692Z,17.83
2022-08-05T00:51:50.382Z,17.86
2022-08-05T00:52:35.637Z,17.87
2022-08-05T00:54:00.498Z,17.86
2022-08-05T00:54:32.597Z,17.85
2022-08-05T00:55:41.982Z,17.83
2022-08-05T00:56:32.592Z,17.82
2022-08-05T00:57:31.628Z,17.79
2022-08-05T00:58:32.535Z,17.79
2022-08-05T00:59:42.010Z,17.78
2022-08-05T01:00:32.551Z,17.79
2022-08-05T01:01:48.262Z,17.80
2022-08-05T01:02:32.477Z,17.80
2022-08-05T01:03:33.416Z,17.78
2022-08-05T01:04:31.457Z,17.79
2022-08-05T01:05:31.447Z,17.80
2022-08-05T01:06:32.553Z,17.79
2022-08-05T01:07:31.944Z,17.82
2022-08-05T01:08:43.059Z,17.83
2022-08-05T01:09:32.380Z,17.83
2022-08-05T01:10:31.363Z,17.85
2022-08-05T01:11:37.057Z,17.82
2022-08-05T01:12:34.351Z,17.83
2022-08-05T01:13:57.549Z,17.80
2022-08-05T01:14:32.309Z,17.82
2022-08-05T01:15:35.584Z,17.82
2022-08-05T01:16:32.282Z,17.86
2022-08-05T01:17:31.264Z,17.86
2022-08-05T01:18:32.282Z,17.86
2022-08-05T01:19:57.004Z,17.82
2022-08-05T01:20:32.225Z,17.78
2022-08-05T01:21:38.103Z,17.76
2022-08-05T01:22:32.225Z,17.71
2022-08-05T01:23:34.820Z,17.60
2022-08-05T01:24:31.216Z,17.59
2022-08-05T01:25:40.907Z,17.56
2022-08-05T01:26:32.138Z,17.59
2022-08-05T01:27:33.039Z,17.64
2022-08-05T01:28:31.108Z,17.67
2022-08-05T01:29:31.099Z,17.70
2022-08-05T01:30:33.634Z,17.72
2022-08-05T01:31:34.093Z,17.76
2022-08-05T01:32:35.111Z,17.80
2022-08-05T01:33:35.374Z,17.79
2022-08-05T01:34:31.031Z,17.79
2022-08-05T01:35:51.294Z,17.71
2022-08-05T01:36:32.020Z,17.71
2022-08-05T01:37:31.243Z,17.68
2022-08-05T01:38:30.972Z,17.65
2022-08-05T01:39:45.554Z,17.68
2022-08-05T01:40:31.941Z,17.67
2022-08-05T01:41:30.964Z,17.65
2022-08-05T01:42:30.911Z,17.59
2022-08-05T01:43:30.912Z,17.56
2022-08-05T01:44:34.169Z,17.52
2022-08-05T01:45:34.984Z,17.45
2022-08-05T01:46:42.529Z,17.45
2022-08-05T01:47:39.336Z,17.45
2022-08-05T01:48:31.830Z,17.41
2022-08-05T01:50:00.487Z,17.38
2022-08-05T01:50:31.797Z,17.34
2022-08-05T01:51:33.850Z,17.31
2022-08-05T01:52:33.782Z,17.30
2022-08-05T01:53:57.822Z,17.26
2022-08-05T01:54:31.742Z,17.22
2022-08-05T01:55:30.732Z,17.19
2022-08-05T01:58:13.190Z,17.14
2022-08-05T01:58:13.785Z,17.11
2022-08-05T01:58:44.613Z,17.11
2022-08-05T01:59:31.672Z,17.09
2022-08-05T02:00:31.141Z,17.11
2022-08-05T02:01:38.721Z,17.12
2022-08-05T02:02:31.696Z,17.11
2022-08-05T02:03:33.969Z,17.11
2022-08-05T02:04:30.642Z,17.12
2022-08-05T02:05:30.584Z,17.14
2022-08-05T02:06:37.345Z,17.15
2022-08-05T02:07:31.625Z,17.16
2022-08-05T02:08:31.658Z,17.19
2022-08-05T02:09:30.535Z,17.20
2022-08-05T02:10:30.527Z,17.19
2022-08-05T02:11:34.274Z,17.16
2022-08-05T02:12:33.592Z,17.20
2022-08-05T02:13:36.470Z,17.20
2022-08-05T02:14:31.875Z,17.22
2022-08-05T02:15:33.226Z,17.24
2022-08-05T02:16:31.201Z,17.24
2022-08-05T02:18:32.484Z,17.27
2022-08-05T02:18:35.019Z,17.29
2022-08-05T02:19:33.475Z,17.27
2022-08-05T02:20:30.384Z,17.24
2022-08-05T02:21:31.142Z,17.23
2022-08-05T02:22:31.361Z,17.15
2022-08-05T02:23:30.361Z,17.14
2022-08-05T02:24:30.332Z,17.12
2022-08-05T02:25:33.006Z,17.11
2022-08-05T02:26:31.063Z,17.09
2022-08-05T02:27:59.866Z,17.08
2022-08-05T02:28:36.421Z,17.06
2022-08-05T02:29:58.554Z,17.04
2022-08-05T02:30:31.269Z,16.99
2022-08-05T02:31:35.028Z,16.97
2022-08-05T02:32:33.247Z,16.97
2022-08-05T02:33:36.250Z,16.90
2022-08-05T02:34:31.256Z,16.90
2022-08-05T02:35:33.295Z,16.89
2022-08-05T02:36:31.929Z,16.87
2022-08-05T02:37:32.053Z,16.84
2022-08-05T02:38:35.191Z,16.86
2022-08-05T02:39:31.148Z,16.83
2022-08-05T02:40:30.136Z,16.84
2022-08-05T02:41:42.844Z,16.83
2022-08-05T02:42:36.010Z,16.81
2022-08-05T02:43:34.439Z,16.79
2022-08-05T02:44:30.051Z,16.76
2022-08-05T02:45:52.644Z,16.76
2022-08-05T02:46:31.020Z,16.75
2022-08-05T02:48:07.722Z,16.75
2022-08-05T02:48:31.032Z,16.75
2022-08-05T02:49:36.460Z,16.78
2022-08-05T02:50:30.963Z,16.78
2022-08-05T02:52:03.639Z,16.76
2022-08-05T02:52:33.983Z,16.76
2022-08-05T02:53:38.945Z,16.72
2022-08-05T02:54:34.955Z,16.72
2022-08-05T02:56:00.129Z,16.69
2022-08-05T02:56:30.996Z,16.68
2022-08-05T02:58:12.113Z,16.66
2022-08-05T02:58:30.856Z,16.65
2022-08-05T02:59:29.836Z,16.64
2022-08-05T03:00:30.827Z,16.64
2022-08-05T03:01:29.892Z,16.64
2022-08-05T03:02:29.828Z,16.64
2022-08-05T03:03:34.174Z,16.58
2022-08-05T03:04:30.795Z,16.61
2022-08-05T03:06:55.095Z,16.57
2022-08-05T03:06:55.960Z,16.58
2022-08-05T03:08:01.155Z,16.60
2022-08-05T03:08:30.721Z,16.57
2022-08-05T03:09:38.325Z,16.54
2022-08-05T03:10:30.726Z,16.53
2022-08-05T03:11:54.769Z,16.51
2022-08-05T03:12:33.707Z,16.54
2022-08-05T03:13:52.209Z,16.51
2022-08-05T03:14:30.674Z,16.51
2022-08-05T03:15:29.672Z,16.51
2022-08-05T03:16:29.624Z,16.50
2022-08-05T03:17:29.604Z,16.50
2022-08-05T03:18:30.100Z,16.47
2022-08-05T03:19:33.230Z,16.46
2022-08-05T03:20:30.635Z,16.46
2022-08-05T03:21:29.560Z,16.46
2022-08-05T03:22:32.364Z,16.46
2022-08-05T03:23:29.526Z,16.46
2022-08-05T03:24:30.817Z,16.47
2022-08-05T03:25:33.508Z,16.47
2022-08-05T03:26:32.433Z,16.47
2022-08-05T03:27:59.633Z,16.47
2022-08-05T03:28:30.476Z,16.46
2022-08-05T03:29:44.855Z,16.46
2022-08-05T03:30:34.122Z,16.42
2022-08-05T03:31:57.087Z,16.43
2022-08-05T03:32:33.479Z,16.46
2022-08-05T03:33:32.282Z,16.46
2022-08-05T03:34:30.392Z,16.47
2022-08-05T03:35:29.382Z,16.43
2022-08-05T03:36:30.590Z,16.41
2022-08-05T03:37:29.352Z,16.39
2022-08-05T03:38:33.323Z,16.42
2022-08-05T03:39:31.584Z,16.43
2022-08-05T03:40:31.879Z,16.47
2022-08-05T03:41:32.979Z,16.46
2022-08-05T03:42:32.825Z,16.47
2022-08-05T03:44:09.796Z,16.47
2022-08-05T03:44:30.264Z,16.47
2022-08-05T03:45:29.246Z,16.49
2022-08-05T03:46:32.555Z,16.50
2022-08-05T03:47:35.270Z,16.50
2022-08-05T03:48:30.236Z,16.53
2022-08-05T03:49:30.819Z,16.54
2022-08-05T03:50:29.186Z,16.56
2022-08-05T03:52:37.323Z,16.60
2022-08-05T03:52:39.254Z,16.65
2022-08-05T03:54:59.318Z,16.65
2022-08-05T03:55:52.021Z,16.65
2022-08-05T03:56:04.663Z,16.66
2022-08-05T03:56:33.049Z,16.68
2022-08-05T03:57:41.322Z,16.71
2022-08-05T03:58:30.139Z,16.71
2022-08-05T03:59:47.678Z,16.72
2022-08-05T04:00:30.060Z,16.74
2022-08-05T04:01:29.084Z,16.75
2022-08-05T04:02:38.515Z,16.75
2022-08-05T04:03:30.012Z,16.78
2022-08-05T04:04:29.031Z,16.78
2022-08-05T04:05:33.198Z,16.78
2022-08-05T04:06:29.983Z,16.81
2022-08-05T04:07:28.966Z,16.81
2022-08-05T04:08:34.617Z,16.81
2022-08-05T04:09:29.963Z,16.86
2022-08-05T04:10:37.199Z,16.87
2022-08-05T04:11:50.661Z,16.90
2022-08-05T04:12:32.917Z,16.93
2022-08-05T04:13:50.590Z,16.93
2022-08-05T04:14:31.137Z,16.94
2022-08-05T04:15:33.114Z,16.96
2022-08-05T04:16:32.529Z,16.96
2022-08-05T04:17:55.468Z,16.96
2022-08-05T04:18:29.828Z,16.99
2022-08-05T04:19:28.818Z,16.97
2022-08-05T04:20:28.788Z,17.01
2022-08-05T04:22:08.824Z,17.01
2022-08-05T04:22:29.789Z,17.04
2022-08-05T04:24:05.368Z,17.06
2022-08-05T04:24:29.739Z,17.05
2022-08-05T04:25:57.057Z,17.06
2022-08-05T04:26:32.410Z,17.08
2022-08-05T04:27:41.967Z,17.06
2022-08-05T04:28:31.688Z,17.06
2022-08-05T04:29:28.663Z,17.08
2022-08-05T04:30:28.657Z,17.08
2022-08-05T04:31:33.974Z,17.09
2022-08-05T04:32:33.389Z,17.12
2022-08-05T04:34:18.524Z,17.11
2022-08-05T04:34:32.671Z,17.11
2022-08-05T04:36:15.551Z,17.06
2022-08-05T04:36:49.674Z,17.05
2022-08-05T04:38:00.928Z,17.06
2022-08-05T04:38:39.498Z,17.08
2022-08-05T04:39:29.565Z,17.09
2022-08-05T04:40:28.531Z,17.12
2022-08-05T04:41:36.882Z,17.14
2022-08-05T04:42:29.497Z,17.15
2022-08-05T04:43:28.495Z,17.15
2022-08-05T04:44:29.549Z,17.16
2022-08-05T04:45:47.825Z,17.19
2022-08-05T04:46:29.451Z,17.20
2022-08-05T04:47:28.437Z,17.19
2022-08-05T04:48:29.421Z,17.19
2022-08-05T04:49:38.337Z,17.23
2022-08-05T04:50:34.376Z,17.24
2022-08-05T04:51:32.413Z,17.29
2022-08-05T04:52:33.448Z,17.34
2022-08-05T04:53:28.366Z,17.30
2022-08-05T04:54:29.342Z,17.29
2022-08-05T04:56:15.216Z,17.30
2022-08-05T04:56:34.792Z,17.31
2022-08-05T04:57:29.687Z,17.33
2022-08-05T04:58:29.294Z,17.34
2022-08-05T04:59:38.607Z,17.36
2022-08-05T05:00:30.077Z,17.38
2022-08-05T05:01:59.659Z,17.41
2022-08-05T05:02:37.225Z,17.42
2022-08-05T05:03:29.225Z,17.44
2022-08-05T05:04:29.218Z,17.46
2022-08-05T05:05:29.338Z,17.48
2022-08-05T05:06:39.670Z,17.51
2022-08-05T05:07:31.929Z,17.52
2022-08-05T05:08:30.475Z,17.54
2022-08-05T05:09:28.147Z,17.57
2022-08-05T05:10:29.481Z,17.57
2022-08-05T05:11:54.011Z,17.60
2022-08-05T05:12:32.156Z,17.64
2022-08-05T05:13:32.435Z,17.64
2022-08-05T05:14:31.914Z,17.65
2022-08-05T05:15:57.154Z,17.65
2022-08-05T05:16:30.362Z,17.67
2022-08-05T05:17:56.899Z,17.65
2022-08-05T05:18:33.671Z,17.63
2022-08-05T05:19:39.640Z,17.65
2022-08-05T05:20:29.073Z,17.63
2022-08-05T05:21:28.002Z,17.65
2022-08-05T05:22:29.013Z,17.67
2022-08-05T05:23:39.163Z,17.68
2022-08-05T05:24:56.055Z,17.67
2022-08-05T05:25:40.239Z,17.68
2022-08-05T05:26:32.974Z,17.67
2022-08-05T05:27:41.735Z,17.68
2022-08-05T05:28:28.930Z,17.71
2022-08-05T05:30:03.519Z,17.76
2022-08-05T05:30:33.354Z,17.78
2022-08-05T05:32:05.446Z,17.82
2022-08-05T05:33:16.092Z,17.85
2022-08-05T05:34:06.418Z,17.90
2022-08-05T05:35:05.984Z,17.97
2022-08-05T05:36:05.397Z,18.00
2022-08-05T05:37:05.412Z,18.04
2022-08-05T05:38:05.484Z,18.05
2022-08-05T05:39:05.450Z,18.10
2022-08-05T05:40:06.331Z,18.16
2022-08-05T05:41:05.315Z,18.18
2022-08-05T05:42:05.313Z,18.22
2022-08-05T05:43:05.282Z,18.28
2022-08-05T05:44:05.273Z,18.33
2022-08-05T05:45:06.283Z,18.34
2022-08-05T05:46:06.854Z,18.41
2022-08-05T05:47:13.096Z,18.43
2022-08-05T05:48:08.377Z,18.49
2022-08-05T05:49:06.599Z,18.55
2022-08-05T05:50:06.245Z,18.59
2022-08-05T05:51:14.902Z,18.68
2022-08-05T05:52:09.180Z,18.78
2022-08-05T05:53:20.860Z,18.84
2022-08-05T05:54:06.127Z,18.92
2022-08-05T05:55:13.102Z,18.99
2022-08-05T05:56:06.131Z,19.04
2022-08-05T05:57:05.077Z,19.08
2022-08-05T05:58:06.068Z,19.08
2022-08-05T05:59:05.621Z,19.09
2022-08-05T06:00:05.056Z,19.14
2022-08-05T06:01:13.394Z,19.12
2022-08-05T06:02:06.179Z,19.08
2022-08-05T06:03:40.210Z,19.04
2022-08-05T06:04:06.014Z,19.00
2022-08-05T06:05:10.628Z,19.04
2022-08-05T06:06:05.955Z,19.00
2022-08-05T06:07:04.933Z,19.00
2022-08-05T06:08:04.973Z,18.98
2022-08-05T06:09:04.946Z,18.98
2022-08-05T06:10:09.956Z,18.93
2022-08-05T06:11:08.882Z,18.93
2022-08-05T06:12:09.698Z,18.90
2022-08-05T06:13:04.852Z,18.88
2022-08-05T06:14:04.874Z,18.84
2022-08-05T06:15:04.828Z,18.73
2022-08-05T06:16:29.649Z,18.60
2022-08-05T06:17:24.683Z,18.44
2022-08-05T06:18:05.784Z,18.40
2022-08-05T06:19:05.798Z,18.38
2022-08-05T06:20:04.791Z,18.37
2022-08-05T06:21:04.737Z,18.34
2022-08-05T06:22:04.735Z,18.33
2022-08-05T06:23:04.722Z,18.33
2022-08-05T06:24:04.696Z,18.29
2022-08-05T06:25:50.537Z,18.28
2022-08-05T06:26:13.462Z,18.29
2022-08-05T06:27:05.650Z,18.31
2022-08-05T06:28:12.174Z,18.31
2022-08-05T06:29:06.898Z,18.25
2022-08-05T06:30:20.087Z,18.18
2022-08-05T06:31:10.888Z,18.15
2022-08-05T06:32:21.143Z,18.13
2022-08-05T06:33:05.561Z,18.11
2022-08-05T06:34:07.117Z,18.07
2022-08-05T06:35:05.806Z,18.07
2022-08-05T06:36:09.778Z,18.08
2022-08-05T06:37:05.513Z,18.05
2022-08-05T06:38:11.696Z,18.04
2022-08-05T06:39:05.521Z,18.00
2022-08-05T06:40:04.464Z,18.00
2022-08-05T06:41:04.476Z,17.98
2022-08-05T06:42:04.467Z,17.98
2022-08-05T06:43:04.415Z,18.01
2022-08-05T06:44:04.437Z,18.00
2022-08-05T06:45:05.552Z,18.04
2022-08-05T06:46:07.223Z,17.97
2022-08-05T06:47:04.438Z,18.01
2022-08-05T06:48:36.988Z,18.04
2022-08-05T06:49:07.681Z,18.07
2022-08-05T06:50:05.191Z,18.11
2022-08-05T06:51:09.536Z,18.18
2022-08-05T06:52:07.311Z,18.22
2022-08-05T06:53:19.534Z,18.23
2022-08-05T06:54:05.313Z,18.26
2022-08-05T06:55:04.344Z,18.28
2022-08-05T06:56:04.283Z,18.25
2022-08-05T06:57:14.108Z,18.23
2022-08-05T06:58:19.982Z,18.22
2022-08-05T06:59:08.678Z,18.18
2022-08-05T07:00:04.356Z,18.19
2022-08-05T07:01:04.237Z,18.23
2022-08-05T07:02:04.927Z,18.16
2022-08-05T07:03:04.240Z,18.15
2022-08-05T07:04:05.150Z,18.10
2022-08-05T07:05:04.136Z,18.01
2022-08-05T07:06:06.266Z,17.98
2022-08-05T07:07:08.100Z,18.00
2022-08-05T07:08:04.127Z,17.95
2022-08-05T07:09:04.646Z,17.95
2022-08-05T07:10:04.062Z,17.95
2022-08-05T07:11:07.030Z,17.98
2022-08-05T07:12:08.027Z,18.05
2022-08-05T07:13:04.001Z,18.07
2022-08-05T07:14:04.265Z,18.05
2022-08-05T07:15:03.971Z,18.07
2022-08-05T07:16:04.547Z,18.11
2022-08-05T07:17:59.792Z,18.13
2022-08-05T07:18:09.829Z,18.16
2022-08-05T07:19:04.921Z,18.19
2022-08-05T07:20:32.414Z,18.25
2022-08-05T07:21:05.685Z,18.28
2022-08-05T07:22:04.622Z,18.29
2022-08-05T07:23:04.562Z,18.29
2022-08-05T07:24:03.857Z,18.33
2022-08-05T07:25:22.089Z,18.33
2022-08-05T07:26:04.818Z,18.34
2022-08-05T07:27:04.564Z,18.34
2022-08-05T07:28:06.069Z,18.37
2022-08-05T07:29:03.797Z,18.41
2022-08-05T07:30:24.007Z,18.40
2022-08-05T07:31:07.759Z,18.33
2022-08-05T07:32:07.541Z,18.34
2022-08-05T07:33:08.799Z,18.33
2022-08-05T07:34:08.302Z,18.35
2022-08-05T07:36:03.257Z,18.40
2022-08-05T07:36:20.209Z,18.37
2022-08-05T07:37:06.193Z,18.33
2022-08-05T07:38:03.789Z,18.35
2022-08-05T07:39:05.610Z,18.34
2022-08-05T07:40:31.969Z,18.38
2022-08-05T07:42:07.354Z,18.44
2022-08-05T07:42:12.961Z,18.47
2022-08-05T07:43:13.821Z,18.44
2022-08-05T07:44:04.565Z,18.41
2022-08-05T07:45:03.546Z,18.43
2022-08-05T07:46:04.535Z,18.49
2022-08-05T07:47:07.834Z,18.56
2022-08-05T07:48:03.533Z,18.59
2022-08-05T07:49:06.135Z,18.56
2022-08-05T07:50:06.651Z,18.50
2022-08-05T07:51:08.720Z,18.52
2022-08-05T07:52:08.231Z,18.55
2022-08-05T07:53:03.446Z,18.56
2022-08-05T07:54:03.416Z,18.59
2022-08-05T07:55:03.436Z,18.63
2022-08-05T07:56:06.272Z,18.65
2022-08-05T07:57:17.982Z,18.66
2022-08-05T07:58:04.858Z,18.70
2022-08-05T07:59:03.343Z,18.68
2022-08-05T08:00:03.372Z,18.68
2022-08-05T08:01:06.142Z,18.70
2022-08-05T08:02:04.310Z,18.66
2022-08-05T08:03:14.322Z,18.66
2022-08-05T08:04:04.322Z,18.68
2022-08-05T08:05:03.259Z,18.71
2022-08-05T08:06:03.292Z,18.74
2022-08-05T08:07:05.439Z,18.77
2022-08-05T08:08:03.210Z,18.78
2022-08-05T08:09:03.203Z,18.81
2022-08-05T08:10:03.185Z,18.84
2022-08-05T08:11:08.779Z,18.86
2022-08-05T08:12:17.159Z,18.86
2022-08-05T08:13:04.164Z,18.84
2022-08-05T08:14:03.134Z,18.77
2022-08-05T08:15:03.567Z,18.71
2022-08-05T08:16:35.143Z,18.74
2022-08-05T08:17:04.118Z,18.75
2022-08-05T08:18:05.037Z,18.78
2022-08-05T08:19:04.058Z,18.78
2022-08-05T08:20:21.454Z,18.77
2022-08-05T08:21:04.239Z,18.74
2022-08-05T08:22:04.018Z,18.75
2022-08-05T08:23:03.302Z,18.74
2022-08-05T08:24:05.308Z,18.75
2022-08-05T08:25:15.882Z,18.74
2022-08-05T08:26:04.616Z,18.73
2022-08-05T08:27:02.972Z,18.68
2022-08-05T08:28:02.933Z,18.66
2022-08-05T08:29:29.569Z,18.65
2022-08-05T08:30:19.002Z,18.59
2022-08-05T08:31:06.913Z,18.58
2022-08-05T08:32:05.876Z,18.53
2022-08-05T08:33:08.066Z,18.49
2022-08-05T08:34:02.874Z,18.44
2022-08-05T08:35:02.847Z,18.40
2022-08-05T08:36:29.420Z,18.41
2022-08-05T08:37:05.473Z,18.44
2022-08-05T08:38:02.779Z,18.44
2022-08-05T08:39:02.832Z,18.50
2022-08-05T08:40:04.308Z,18.50
2022-08-05T08:41:02.737Z,18.49
2022-08-05T08:42:05.504Z,18.45
2022-08-05T08:43:20.987Z,18.47
2022-08-05T08:45:17.856Z,18.52
2022-08-05T08:45:23.097Z,18.55
2022-08-05T08:46:03.658Z,18.58
2022-08-05T08:47:02.652Z,18.62
2022-08-05T08:48:11.824Z,18.65
2022-08-05T08:50:22.218Z,18.66
2022-08-05T08:50:30.605Z,18.66
2022-08-05T08:51:54.633Z,18.58
2022-08-05T08:52:13.719Z,18.58
2022-08-05T08:53:08.043Z,18.58
2022-08-05T08:54:03.551Z,18.59
2022-08-05T08:55:02.532Z,18.60
2022-08-05T08:56:06.034Z,18.63
2022-08-05T08:57:02.503Z,18.68
2022-08-05T08:58:02.544Z,18.65
2022-08-05T08:59:05.853Z,18.68
2022-08-05T09:00:04.403Z,18.65
2022-08-05T09:01:02.512Z,18.63
2022-08-05T09:02:02.430Z,18.65
2022-08-05T09:03:02.430Z,18.66
2022-08-05T09:04:02.429Z,18.74
2022-08-05T09:05:16.430Z,18.80
2022-08-05T09:06:09.234Z,18.86
2022-08-05T09:07:03.361Z,18.90
2022-08-05T09:08:03.364Z,18.98
2022-08-05T09:09:02.395Z,19.00
2022-08-05T09:10:02.321Z,19.09
2022-08-05T09:11:05.302Z,19.15
2022-08-05T09:12:14.461Z,19.26
2022-08-05T09:13:04.811Z,19.30
2022-08-05T09:14:54.867Z,19.37
2022-08-05T09:15:06.202Z,19.45
2022-08-05T09:16:02.232Z,19.51
2022-08-05T09:17:02.254Z,19.52
2022-08-05T09:18:02.204Z,19.55
2022-08-05T09:19:06.898Z,19.54
2022-08-05T09:20:05.270Z,19.49
2022-08-05T09:21:02.166Z,19.49
2022-08-05T09:22:23.342Z,19.44
2022-08-05T09:23:05.465Z,19.39
2022-08-05T09:24:02.508Z,19.36
2022-08-05T09:25:02.112Z,19.34
2022-08-05T09:26:06.231Z,19.37
2022-08-05T09:27:02.077Z,19.36
2022-08-05T09:28:04.025Z,19.19
2022-08-05T09:29:02.072Z,19.11
2022-08-05T09:30:06.305Z,19.12
2022-08-05T09:31:43.353Z,19.12
2022-08-05T09:32:42.253Z,19.19
2022-08-05T09:33:04.586Z,19.18
2022-08-05T09:34:02.012Z,19.18
2022-08-05T09:35:02.508Z,19.16
2022-08-05T09:36:11.555Z,19.14
2022-08-05T09:37:02.933Z,19.02
2022-08-05T09:38:12.871Z,19.08
2022-08-05T09:39:02.979Z,19.07
2022-08-05T09:40:01.934Z,19.07
2022-08-05T09:41:01.884Z,19.09
2022-08-05T09:42:01.866Z,19.12
2022-08-05T09:43:01.854Z,19.15
2022-08-05T09:44:01.839Z,19.16
2022-08-05T09:45:03.393Z,19.14
2022-08-05T09:46:07.830Z,19.14
2022-08-05T09:47:02.796Z,19.14
2022-08-05T09:48:02.783Z,19.16
2022-08-05T09:49:08.239Z,19.21
2022-08-05T09:50:03.460Z,19.24
2022-08-05T09:51:04.759Z,19.27
2022-08-05T09:53:26.149Z,19.39
2022-08-05T09:54:16.067Z,19.31
2022-08-05T09:55:58.716Z,19.14
2022-08-05T09:56:16.068Z,18.90
2022-08-05T09:57:20.679Z,18.88
2022-08-05T09:58:16.008Z,18.81
2022-08-05T09:59:16.868Z,18.83
2022-08-05T10:00:15.756Z,18.88
2022-08-05T10:01:31.538Z,18.89
2022-08-05T10:02:16.763Z,18.92
2022-08-05T10:03:14.944Z,18.95
2022-08-05T10:04:17.300Z,18.98
2022-08-05T10:05:14.913Z,19.02
2022-08-05T10:06:15.926Z,18.99
2022-08-05T10:07:20.865Z,18.98
2022-08-05T10:08:36.297Z,19.04
2022-08-05T10:09:27.418Z,19.07
2022-08-05T10:10:15.863Z,19.07
2022-08-05T10:11:14.876Z,19.09
2022-08-05T10:12:18.664Z,19.14
2022-08-05T10:13:18.825Z,19.11
2022-08-05T10:14:14.785Z,19.08
2022-08-05T10:15:16.431Z,19.16
2022-08-05T10:16:14.756Z,19.24
2022-08-05T10:17:37.680Z,19.34
2022-08-05T10:18:16.959Z,19.39
2022-08-05T10:19:14.716Z,19.44
2022-08-05T10:20:14.726Z,19.47
2022-08-05T10:21:15.786Z,19.49
2022-08-05T10:22:15.533Z,19.48
2022-08-05T10:23:34.321Z,19.48
2022-08-05T10:24:15.679Z,19.48
2022-08-05T10:25:14.640Z,19.49
2022-08-05T10:26:15.119Z,19.51
2022-08-05T10:27:14.664Z,19.54
2022-08-05T10:28:19.122Z,19.58
2022-08-05T10:29:19.176Z,19.64
2022-08-05T10:31:20.479Z,19.69
2022-08-05T10:32:48.301Z,19.74
2022-08-05T10:32:53.046Z,19.84
2022-08-05T10:33:18.534Z,19.92
2022-08-05T10:34:14.516Z,19.96
2022-08-05T10:35:14.533Z,19.89
2022-08-05T10:36:15.632Z,19.94
2022-08-05T10:37:14.475Z,20.06
2022-08-05T10:38:14.465Z,20.11
2022-08-05T10:39:24.513Z,20.11
2022-08-05T10:40:18.077Z,20.07
2022-08-05T10:41:14.452Z,19.89
2022-08-05T10:42:15.404Z,19.84
2022-08-05T10:43:14.388Z,19.77
2022-08-05T10:44:14.378Z,19.76
2022-08-05T10:45:23.605Z,19.79
2022-08-05T10:46:15.350Z,19.81
2022-08-05T10:47:26.725Z,19.82
2022-08-05T10:48:31.710Z,19.82
2022-08-05T10:49:16.464Z,19.84
2022-08-05T10:50:33.192Z,19.82
2022-08-05T10:51:21.489Z,19.79
2022-08-05T10:52:18.321Z,19.70
2022-08-05T10:53:17.618Z,19.66
2022-08-05T10:54:31.096Z,19.59
2022-08-05T10:55:16.063Z,19.58
2022-08-05T10:56:21.067Z,19.58
2022-08-05T10:57:15.195Z,19.59
2022-08-05T10:58:15.640Z,19.63
2022-08-05T11:00:03.451Z,19.67
2022-08-05T11:00:19.845Z,19.70
2022-08-05T11:01:15.205Z,19.71
2022-08-05T11:02:37.656Z,19.73
2022-08-05T11:03:26.006Z,19.76
2022-08-05T11:04:15.109Z,19.77
2022-08-05T11:05:14.098Z,19.74
2022-08-05T11:06:15.048Z,19.77
2022-08-05T11:07:14.118Z,19.82
2022-08-05T11:08:34.077Z,19.86
2022-08-05T11:09:16.638Z,19.91
2022-08-05T11:10:14.025Z,19.95
2022-08-05T11:11:16.709Z,19.96
2022-08-05T11:12:17.084Z,19.94
2022-08-05T11:13:17.018Z,19.84
2022-08-05T11:14:13.964Z,19.84
2022-08-05T11:15:20.134Z,19.76
2022-08-05T11:16:14.953Z,19.73
2022-08-05T11:17:58.676Z,19.81
2022-08-05T11:18:15.193Z,19.86
2022-08-05T11:20:11.534Z,19.92
2022-08-05T11:20:18.430Z,20.02
2022-08-05T11:21:13.866Z,20.09
2022-08-05T11:22:13.864Z,20.18
2022-08-05T11:23:13.875Z,20.25
2022-08-05T11:24:29.646Z,20.34
2022-08-05T11:26:03.217Z,20.41
2022-08-05T11:26:14.808Z,20.52
2022-08-05T11:27:13.786Z,20.66
2022-08-05T11:28:17.232Z,20.77
2022-08-05T11:29:14.451Z,20.92
2022-08-05T11:30:13.807Z,21.02
2022-08-05T11:31:19.540Z,21.20
2022-08-05T11:32:17.720Z,21.37
2022-08-05T11:33:20.913Z,21.50
2022-08-05T11:34:15.087Z,21.55
2022-08-05T11:35:15.559Z,21.64
2022-08-05T11:36:13.661Z,21.69
2022-08-05T11:38:26.798Z,21.75
2022-08-05T11:38:36.875Z,21.76
2022-08-05T11:39:14.656Z,21.51
2022-08-05T11:40:13.613Z,21.51
2022-08-05T11:41:56.459Z,21.55
2022-08-05T11:42:18.327Z,21.58
2022-08-05T11:43:13.572Z,21.51
2022-08-05T11:44:40.906Z,21.50
2022-08-05T11:46:15.572Z,21.50
2022-08-05T11:46:30.818Z,21.46
2022-08-05T11:47:48.777Z,21.46
2022-08-05T11:48:14.667Z,21.43
2022-08-05T11:49:13.488Z,21.39
2022-08-05T11:50:14.071Z,21.37
2022-08-05T11:51:13.487Z,21.37
2022-08-05T11:52:17.439Z,21.35
2022-08-05T11:53:17.493Z,21.40
2022-08-05T11:54:13.929Z,21.39
2022-08-05T11:55:13.409Z,21.43
2022-08-05T11:56:13.399Z,21.48
2022-08-05T11:57:26.041Z,21.55
2022-08-05T11:58:14.361Z,21.58
2022-08-05T11:59:13.617Z,21.61
2022-08-05T12:00:13.333Z,21.67
2022-08-05T12:01:13.330Z,21.72
2022-08-05T12:02:23.820Z,21.79
2022-08-05T12:03:14.342Z,21.89
2022-08-05T12:04:13.684Z,21.99
2022-08-05T12:05:18.121Z,22.10
2022-08-05T12:06:14.265Z,22.20
2022-08-05T12:07:13.232Z,22.30
2022-08-05T12:08:18.200Z,22.35
2022-08-05T12:09:20.069Z,22.41
2022-08-05T12:10:14.226Z,22.45
2022-08-05T12:11:17.263Z,22.50
2022-08-05T12:12:17.170Z,22.47
2022-08-05T12:13:18.723Z,22.50
2022-08-05T12:14:14.327Z,22.51
2022-08-05T12:15:16.708Z,22.50
2022-08-05T12:16:15.543Z,22.41
2022-08-05T12:17:57.862Z,22.25
2022-08-05T12:18:14.324Z,22.18
2022-08-05T12:20:27.063Z,22.13
2022-08-05T12:20:27.852Z,22.00
2022-08-05T12:21:15.223Z,21.96
2022-08-05T12:22:13.032Z,21.95
2022-08-05T12:23:14.013Z,21.93
2022-08-05T12:24:13.011Z,21.80
2022-08-05T12:25:14.278Z,21.62
2022-08-05T12:26:13.000Z,21.39
2022-08-05T12:27:25.153Z,21.32
2022-08-05T12:28:15.691Z,21.25
2022-08-05T12:29:16.260Z,21.18
2022-08-05T12:30:15.254Z,21.09
2022-08-05T12:31:12.906Z,21.07
2022-08-05T12:32:16.914Z,21.02
2022-08-05T12:33:27.297Z,20.93
2022-08-05T12:34:20.621Z,20.72
2022-08-05T12:35:13.857Z,20.51
2022-08-05T12:36:13.875Z,20.40
2022-08-05T12:37:17.259Z,20.40
2022-08-05T12:38:13.810Z,20.47
2022-08-05T12:39:12.837Z,20.41
2022-08-05T12:40:26.882Z,20.41
2022-08-05T12:41:14.134Z,20.41
2022-08-05T12:42:14.295Z,20.40
2022-08-05T12:43:12.772Z,20.40
2022-08-05T12:44:14.465Z,20.28
2022-08-05T12:45:13.722Z,20.19
2022-08-05T12:46:12.703Z,20.18
2022-08-05T12:47:12.890Z,20.02
2022-08-05T12:48:27.827Z,20.00
2022-08-05T12:49:14.210Z,19.89
2022-08-05T12:50:12.671Z,19.88
2022-08-05T12:52:10.224Z,19.88
2022-08-05T12:52:23.883Z,19.89
2022-08-05T12:53:16.626Z,19.89
2022-08-05T12:54:16.481Z,19.92